Hanover, Canada
Current Conditions -  °F | °C
As of 3:00 AM on Friday 19 Dec 2014 (Local Time) from CYVV Reporting Station
Light Snow Light Snow  
Wind Chill: 10°   Ceiling: 1400
Heat Index: 21°   Visibility: 15mi
Dew Point: 16°   Wind: 10mph
Humidity: 80%   Direction: 30°NNE
Pressure: 30.17"   Gusts: NA
Location:  44.15°N, 81.03°W
Report Text: CYVV 190800Z 03009KT 350V060 15SM -SN OVC014 M06/M09 A3017 RMK SC8 SLP230
Loading
Personal Weather Stations






























Interactive Weather Map New forecast layout! Learn more

10-Day Weather Forecast

Advertisements
Track Severe Weather on mobile